Strona główna
METAR-TAF:

METAR-TAF

Lotnisko :

Port lotniczy Friedrichshafen

Friedrichshafen, Niemcy

Szerokość geograficzna: 47-40N, Długość geograficzna: 009-31E, wysokość: 416 m

Aktualna obserwacja pogody

Raport powstał 32 minut temu, godzina 22:50 UTC
Wiatr 8 kt od północ
Temperatura 15°C
Wilgotność 63%
Ciśnienie 1023 hPa
Widzialność 10 km lub więcej

METAR: EDNY 122250Z AUTO 01008KT 9999 // NCD 15/08 Q1023

czas: 01:22 (23:22 UTC)

Prognoza

Raport powstał 6 godziny i 22 minut temu, godzina 17:00 UTC
Prognoza ważna od 12 godzina 18 UTC do 13 godzina 18 UTC
Wiatr 6 kt od północno-północny wschód
Widzialność 10 km lub więcej
Brak chmur poniżej 1500 m i brak chmur cumulonimbus
Prawdopodobieństwo 40% :
Przejściowo
od 13 godzina 10 UTC do 13 godzina 16 UTC
Wiatr 4 kt od zachodnio-południowy zachód

TAF: EDNY 121700Z 1218/1318 03006KT CAVOK PROB40 TEMPO 1310/1316 24004KT

Obserwacja i prognoza pogody dla ponad 4000 lotnisk (raport METAR i TAF).

Dostępne stacje oznaczono żółtymi i czerwonymi punktami na mapie.

Najedź kursorem aby zobaczyć nazwę stacji.

Kliknij aby zobaczyć obserwacje i prognozy pogody.

Aby zmienić mapę: kliknij na zielony przycisk z czarnym krzyżykiem, aby powiększyć; na zielony przycisk z myślnikiem, aby pomniejszyć; na zielone strzałki, aby przejść do map sąsiednich.


METAR-TAF: